Terminal Aerodrome Forecast
Issued by NWS Cleveland, OH

Home | Current Version | Previous Version | Graphics & Text | Print | Product List | Glossary On
Versions: 1 2 3 4 5 6 7 8 9 10 11 12 13 14 15 16 17 18 19 20 21 22 23 24
000
FTUS41 KCLE 191456 AAB
TAFCLE
TAF AMD
KCLE 191456Z 1915/2018 26005KT P6SM SCT025
     FM191800 28008KT P6SM VCTS BKN035CB
     FM192100 31010KT P6SM SCT060
     FM200200 18005KT P6SM FEW200=

USA.gov is the U.S. government's official web portal to all federal, state and local government web resources and services.